sensor_id;sensor_type;location;lat;lon;timestamp;P1;durP1;ratioP1;P2;durP2;ratioP2
43150;SDS011;28755;51.478;5.702;2023-04-01T00:00:51;13.65;;;1.90;;
43150;SDS011;28755;51.478;5.702;2023-04-01T00:03:18;7.68;;;1.95;;
43150;SDS011;28755;51.478;5.702;2023-04-01T00:05:44;8.25;;;1.90;;
43150;SDS011;28755;51.478;5.702;2023-04-01T00:08:10;8.02;;;1.65;;
43150;SDS011;28755;51.478;5.702;2023-04-01T00:10:36;8.77;;;1.63;;
43150;SDS011;28755;51.478;5.702;2023-04-01T00:13:02;9.90;;;1.95;;
43150;SDS011;28755;51.478;5.702;2023-04-01T00:15:27;7.05;;;1.77;;
43150;SDS011;28755;51.478;5.702;2023-04-01T00:17:53;5.88;;;1.90;;
43150;SDS011;28755;51.478;5.702;2023-04-01T00:20:19;7.72;;;1.95;;
43150;SDS011;28755;51.478;5.702;2023-04-01T00:22:45;6.47;;;1.55;;
43150;SDS011;28755;51.478;5.702;2023-04-01T00:25:11;5.80;;;1.65;;
43150;SDS011;28755;51.478;5.702;2023-04-01T00:27:37;8.23;;;1.80;;
43150;SDS011;28755;51.478;5.702;2023-04-01T00:30:02;6.88;;;1.77;;
43150;SDS011;28755;51.478;5.702;2023-04-01T00:32:28;5.97;;;1.92;;
43150;SDS011;28755;51.478;5.702;2023-04-01T00:34:55;7.18;;;1.88;;
43150;SDS011;28755;51.478;5.702;2023-04-01T00:37:21;5.85;;;1.70;;
43150;SDS011;28755;51.478;5.702;2023-04-01T00:39:47;9.40;;;2.10;;
43150;SDS011;28755;51.478;5.702;2023-04-01T00:42:13;5.63;;;1.80;;
43150;SDS011;28755;51.478;5.702;2023-04-01T00:44:39;6.03;;;1.70;;
43150;SDS011;28755;51.478;5.702;2023-04-01T00:47:05;8.93;;;1.90;;
43150;SDS011;28755;51.478;5.702;2023-04-01T00:49:40;6.10;;;1.80;;
43150;SDS011;28755;51.478;5.702;2023-04-01T00:52:10;4.38;;;1.40;;
43150;SDS011;28755;51.478;5.702;2023-04-01T00:54:38;5.32;;;1.40;;
43150;SDS011;28755;51.478;5.702;2023-04-01T00:59:53;6.53;;;2.00;;
43150;SDS011;28755;51.478;5.702;2023-04-01T01:02:20;4.68;;;1.50;;
43150;SDS011;28755;51.478;5.702;2023-04-01T01:04:46;4.05;;;2.10;;
43150;SDS011;28755;51.478;5.702;2023-04-01T01:15:09;6.90;;;1.58;;
43150;SDS011;28755;51.478;5.702;2023-04-01T01:26:03;4.07;;;1.60;;
43150;SDS011;28755;51.478;5.702;2023-04-01T01:31:36;3.40;;;1.40;;
43150;SDS011;28755;51.478;5.702;2023-04-01T01:37:10;2.05;;;1.30;;
43150;SDS011;28755;51.478;5.702;2023-04-01T01:39:39;3.00;;;1.30;;
43150;SDS011;28755;51.478;5.702;2023-04-01T01:42:08;2.97;;;1.20;;
43150;SDS011;28755;51.478;5.702;2023-04-01T01:44:36;4.45;;;1.60;;
43150;SDS011;28755;51.478;5.702;2023-04-01T01:47:04;3.95;;;1.27;;
43150;SDS011;28755;51.478;5.702;2023-04-01T01:49:30;5.85;;;1.50;;
43150;SDS011;28755;51.478;5.702;2023-04-01T01:51:58;3.67;;;1.30;;
43150;SDS011;28755;51.478;5.702;2023-04-01T01:54:24;3.97;;;1.80;;
43150;SDS011;28755;51.478;5.702;2023-04-01T01:56:51;6.35;;;2.00;;
43150;SDS011;28755;51.478;5.702;2023-04-01T01:59:22;5.05;;;2.13;;
43150;SDS011;28755;51.478;5.702;2023-04-01T02:01:51;3.58;;;2.08;;
43150;SDS011;28755;51.478;5.702;2023-04-01T02:04:20;4.30;;;1.92;;
43150;SDS011;28755;51.478;5.702;2023-04-01T02:06:55;6.65;;;2.30;;
43150;SDS011;28755;51.478;5.702;2023-04-01T02:09:26;3.70;;;2.33;;
43150;SDS011;28755;51.478;5.702;2023-04-01T02:11:53;4.68;;;2.47;;
43150;SDS011;28755;51.478;5.702;2023-04-01T02:14:22;4.40;;;2.60;;
43150;SDS011;28755;51.478;5.702;2023-04-01T02:16:54;5.20;;;3.15;;
43150;SDS011;28755;51.478;5.702;2023-04-01T02:19:26;4.28;;;2.70;;
43150;SDS011;28755;51.478;5.702;2023-04-01T02:21:59;4.80;;;3.15;;
43150;SDS011;28755;51.478;5.702;2023-04-01T02:24:27;3.67;;;2.90;;
43150;SDS011;28755;51.478;5.702;2023-04-01T02:26:56;4.03;;;3.00;;
43150;SDS011;28755;51.478;5.702;2023-04-01T02:29:22;5.00;;;3.60;;
43150;SDS011;28755;51.478;5.702;2023-04-01T02:31:50;6.15;;;4.20;;
43150;SDS011;28755;51.478;5.702;2023-04-01T02:34:17;10.38;;;4.38;;
43150;SDS011;28755;51.478;5.702;2023-04-01T02:36:43;7.72;;;5.20;;
43150;SDS011;28755;51.478;5.702;2023-04-01T02:39:09;5.88;;;4.95;;
43150;SDS011;28755;51.478;5.702;2023-04-01T02:41:41;6.75;;;5.20;;
43150;SDS011;28755;51.478;5.702;2023-04-01T02:44:08;6.97;;;5.80;;
43150;SDS011;28755;51.478;5.702;2023-04-01T02:46:35;8.73;;;6.63;;
43150;SDS011;28755;51.478;5.702;2023-04-01T02:49:01;10.85;;;7.47;;
43150;SDS011;28755;51.478;5.702;2023-04-01T02:51:27;11.07;;;7.53;;
43150;SDS011;28755;51.478;5.702;2023-04-01T02:53:52;10.38;;;7.15;;
43150;SDS011;28755;51.478;5.702;2023-04-01T02:56:18;10.55;;;7.35;;
43150;SDS011;28755;51.478;5.702;2023-04-01T02:58:44;10.02;;;7.75;;
43150;SDS011;28755;51.478;5.702;2023-04-01T03:01:11;10.52;;;8.75;;
43150;SDS011;28755;51.478;5.702;2023-04-01T03:03:37;12.73;;;8.15;;
43150;SDS011;28755;51.478;5.702;2023-04-01T03:06:07;10.43;;;7.43;;
43150;SDS011;28755;51.478;5.702;2023-04-01T03:08:34;11.52;;;8.07;;
43150;SDS011;28755;51.478;5.702;2023-04-01T03:11:00;14.23;;;8.65;;
43150;SDS011;28755;51.478;5.702;2023-04-01T03:13:25;8.93;;;7.20;;
43150;SDS011;28755;51.478;5.702;2023-04-01T03:15:51;13.85;;;7.93;;
43150;SDS011;28755;51.478;5.702;2023-04-01T03:18:17;9.30;;;6.93;;
43150;SDS011;28755;51.478;5.702;2023-04-01T03:20:42;11.95;;;6.90;;
43150;SDS011;28755;51.478;5.702;2023-04-01T03:23:08;14.23;;;7.45;;
43150;SDS011;28755;51.478;5.702;2023-04-01T03:25:34;11.60;;;8.07;;
43150;SDS011;28755;51.478;5.702;2023-04-01T03:28:00;10.98;;;7.57;;
43150;SDS011;28755;51.478;5.702;2023-04-01T03:30:26;10.38;;;6.82;;
43150;SDS011;28755;51.478;5.702;2023-04-01T03:32:52;9.50;;;6.63;;
43150;SDS011;28755;51.478;5.702;2023-04-01T03:35:17;8.23;;;7.38;;
43150;SDS011;28755;51.478;5.702;2023-04-01T03:37:43;10.55;;;7.65;;
43150;SDS011;28755;51.478;5.702;2023-04-01T03:40:09;11.45;;;7.40;;
43150;SDS011;28755;51.478;5.702;2023-04-01T03:42:35;8.90;;;7.82;;
43150;SDS011;28755;51.478;5.702;2023-04-01T03:45:01;9.95;;;7.20;;
43150;SDS011;28755;51.478;5.702;2023-04-01T03:47:28;9.52;;;7.50;;
43150;SDS011;28755;51.478;5.702;2023-04-01T03:49:53;9.60;;;8.50;;
43150;SDS011;28755;51.478;5.702;2023-04-01T03:52:19;12.57;;;8.05;;
43150;SDS011;28755;51.478;5.702;2023-04-01T03:54:45;11.23;;;8.70;;
43150;SDS011;28755;51.478;5.702;2023-04-01T03:57:10;16.35;;;9.50;;
43150;SDS011;28755;51.478;5.702;2023-04-01T03:59:36;12.15;;;9.20;;
43150;SDS011;28755;51.478;5.702;2023-04-01T04:02:02;11.57;;;9.30;;
43150;SDS011;28755;51.478;5.702;2023-04-01T04:04:28;12.00;;;9.57;;
43150;SDS011;28755;51.478;5.702;2023-04-01T04:06:53;11.98;;;8.77;;
43150;SDS011;28755;51.478;5.702;2023-04-01T04:09:20;10.57;;;8.63;;
43150;SDS011;28755;51.478;5.702;2023-04-01T04:11:46;10.80;;;8.40;;
43150;SDS011;28755;51.478;5.702;2023-04-01T04:14:11;10.55;;;8.77;;
43150;SDS011;28755;51.478;5.702;2023-04-01T04:16:37;10.93;;;8.55;;
43150;SDS011;28755;51.478;5.702;2023-04-01T04:19:03;9.20;;;8.30;;
43150;SDS011;28755;51.478;5.702;2023-04-01T04:21:28;9.02;;;8.13;;
43150;SDS011;28755;51.478;5.702;2023-04-01T04:23:54;10.05;;;8.48;;
43150;SDS011;28755;51.478;5.702;2023-04-01T04:26:20;10.23;;;8.60;;
43150;SDS011;28755;51.478;5.702;2023-04-01T04:28:45;9.10;;;7.68;;
43150;SDS011;28755;51.478;5.702;2023-04-01T04:31:11;9.43;;;8.43;;
43150;SDS011;28755;51.478;5.702;2023-04-01T04:33:42;9.55;;;7.68;;
43150;SDS011;28755;51.478;5.702;2023-04-01T04:36:08;9.45;;;8.45;;
43150;SDS011;28755;51.478;5.702;2023-04-01T04:38:34;8.63;;;7.75;;
43150;SDS011;28755;51.478;5.702;2023-04-01T04:40:59;9.27;;;8.00;;
43150;SDS011;28755;51.478;5.702;2023-04-01T04:43:25;10.93;;;9.00;;
43150;SDS011;28755;51.478;5.702;2023-04-01T04:45:50;10.27;;;8.75;;
43150;SDS011;28755;51.478;5.702;2023-04-01T04:48:16;11.23;;;9.25;;
43150;SDS011;28755;51.478;5.702;2023-04-01T04:50:44;12.20;;;9.95;;
43150;SDS011;28755;51.478;5.702;2023-04-01T04:53:11;11.77;;;9.02;;
43150;SDS011;28755;51.478;5.702;2023-04-01T04:55:37;10.75;;;9.25;;
43150;SDS011;28755;51.478;5.702;2023-04-01T04:58:07;12.48;;;8.95;;
43150;SDS011;28755;51.478;5.702;2023-04-01T05:00:32;10.32;;;7.93;;
43150;SDS011;28755;51.478;5.702;2023-04-01T05:02:58;11.05;;;8.80;;
43150;SDS011;28755;51.478;5.702;2023-04-01T05:05:23;10.88;;;8.75;;
43150;SDS011;28755;51.478;5.702;2023-04-01T05:07:52;9.90;;;8.02;;
43150;SDS011;28755;51.478;5.702;2023-04-01T05:10:19;10.43;;;8.15;;
43150;SDS011;28755;51.478;5.702;2023-04-01T05:12:48;12.27;;;8.23;;
43150;SDS011;28755;51.478;5.702;2023-04-01T05:15:13;10.05;;;7.43;;
43150;SDS011;28755;51.478;5.702;2023-04-01T05:17:40;11.35;;;8.18;;
43150;SDS011;28755;51.478;5.702;2023-04-01T05:20:05;8.40;;;6.85;;
43150;SDS011;28755;51.478;5.702;2023-04-01T05:22:32;6.72;;;6.03;;
43150;SDS011;28755;51.478;5.702;2023-04-01T05:24:57;9.50;;;6.80;;
43150;SDS011;28755;51.478;5.702;2023-04-01T05:27:23;10.48;;;7.80;;
43150;SDS011;28755;51.478;5.702;2023-04-01T05:29:48;8.95;;;7.00;;
43150;SDS011;28755;51.478;5.702;2023-04-01T05:32:14;9.65;;;6.40;;
43150;SDS011;28755;51.478;5.702;2023-04-01T05:34:40;7.30;;;6.00;;
43150;SDS011;28755;51.478;5.702;2023-04-01T05:37:06;7.50;;;6.18;;
43150;SDS011;28755;51.478;5.702;2023-04-01T05:39:35;7.65;;;5.65;;
43150;SDS011;28755;51.478;5.702;2023-04-01T05:42:05;6.32;;;5.55;;
43150;SDS011;28755;51.478;5.702;2023-04-01T05:44:31;7.93;;;5.65;;
43150;SDS011;28755;51.478;5.702;2023-04-01T05:46:57;6.65;;;5.50;;
43150;SDS011;28755;51.478;5.702;2023-04-01T05:49:22;6.32;;;5.70;;
43150;SDS011;28755;51.478;5.702;2023-04-01T05:51:48;7.78;;;5.43;;
43150;SDS011;28755;51.478;5.702;2023-04-01T05:54:13;7.03;;;5.80;;
43150;SDS011;28755;51.478;5.702;2023-04-01T05:56:39;6.07;;;5.00;;
43150;SDS011;28755;51.478;5.702;2023-04-01T05:59:04;8.43;;;5.13;;
43150;SDS011;28755;51.478;5.702;2023-04-01T06:01:30;5.15;;;4.65;;
43150;SDS011;28755;51.478;5.702;2023-04-01T06:03:56;6.35;;;4.65;;
43150;SDS011;28755;51.478;5.702;2023-04-01T06:06:25;5.88;;;4.75;;
43150;SDS011;28755;51.478;5.702;2023-04-01T06:08:53;6.18;;;4.55;;
43150;SDS011;28755;51.478;5.702;2023-04-01T06:11:40;6.78;;;5.07;;
43150;SDS011;28755;51.478;5.702;2023-04-01T06:25:10;6.75;;;5.47;;
43150;SDS011;28755;51.478;5.702;2023-04-01T06:27:49;6.80;;;5.75;;
43150;SDS011;28755;51.478;5.702;2023-04-01T06:30:23;11.45;;;7.43;;
43150;SDS011;28755;51.478;5.702;2023-04-01T06:33:05;10.95;;;7.85;;
43150;SDS011;28755;51.478;5.702;2023-04-01T06:38:34;10.82;;;7.35;;
43150;SDS011;28755;51.478;5.702;2023-04-01T06:49:55;9.05;;;6.57;;
43150;SDS011;28755;51.478;5.702;2023-04-01T06:55:01;9.25;;;7.03;;
43150;SDS011;28755;51.478;5.702;2023-04-01T06:57:49;10.18;;;7.22;;
43150;SDS011;28755;51.478;5.702;2023-04-01T07:00:33;10.43;;;7.35;;
43150;SDS011;28755;51.478;5.702;2023-04-01T07:05:35;11.25;;;8.38;;
43150;SDS011;28755;51.478;5.702;2023-04-01T07:08:02;11.65;;;9.25;;
43150;SDS011;28755;51.478;5.702;2023-04-01T07:10:33;12.98;;;8.93;;
43150;SDS011;28755;51.478;5.702;2023-04-01T07:13:15;14.00;;;10.00;;
43150;SDS011;28755;51.478;5.702;2023-04-01T07:15:51;14.93;;;10.23;;
43150;SDS011;28755;51.478;5.702;2023-04-01T07:18:34;15.90;;;10.40;;
43150;SDS011;28755;51.478;5.702;2023-04-01T07:21:04;16.23;;;11.50;;
43150;SDS011;28755;51.478;5.702;2023-04-01T07:23:47;19.17;;;13.40;;
43150;SDS011;28755;51.478;5.702;2023-04-01T07:26:21;20.05;;;13.70;;
43150;SDS011;28755;51.478;5.702;2023-04-01T07:28:49;17.58;;;13.88;;
43150;SDS011;28755;51.478;5.702;2023-04-01T07:31:23;20.67;;;14.10;;
43150;SDS011;28755;51.478;5.702;2023-04-01T07:33:55;22.15;;;16.13;;
43150;SDS011;28755;51.478;5.702;2023-04-01T07:36:37;23.33;;;15.07;;
43150;SDS011;28755;51.478;5.702;2023-04-01T07:39:12;21.55;;;15.60;;
43150;SDS011;28755;51.478;5.702;2023-04-01T07:42:00;20.48;;;15.23;;
43150;SDS011;28755;51.478;5.702;2023-04-01T07:44:56;22.73;;;15.32;;
43150;SDS011;28755;51.478;5.702;2023-04-01T07:53:08;21.85;;;15.57;;
43150;SDS011;28755;51.478;5.702;2023-04-01T07:55:45;20.27;;;15.35;;
43150;SDS011;28755;51.478;5.702;2023-04-01T07:58:24;25.42;;;17.10;;
43150;SDS011;28755;51.478;5.702;2023-04-01T08:01:24;24.48;;;16.08;;
43150;SDS011;28755;51.478;5.702;2023-04-01T08:04:20;24.33;;;17.50;;
43150;SDS011;28755;51.478;5.702;2023-04-01T08:09:58;23.55;;;16.38;;
43150;SDS011;28755;51.478;5.702;2023-04-01T08:12:47;25.65;;;18.13;;
43150;SDS011;28755;51.478;5.702;2023-04-01T08:20:37;22.30;;;16.25;;
43150;SDS011;28755;51.478;5.702;2023-04-01T08:23:22;23.98;;;16.45;;
43150;SDS011;28755;51.478;5.702;2023-04-01T08:26:00;24.23;;;15.52;;
43150;SDS011;28755;51.478;5.702;2023-04-01T08:28:41;25.33;;;15.85;;
43150;SDS011;28755;51.478;5.702;2023-04-01T08:33:56;23.42;;;16.25;;
43150;SDS011;28755;51.478;5.702;2023-04-01T08:36:33;21.58;;;14.45;;
43150;SDS011;28755;51.478;5.702;2023-04-01T08:39:03;22.53;;;14.90;;
43150;SDS011;28755;51.478;5.702;2023-04-01T08:42:27;21.23;;;15.52;;
43150;SDS011;28755;51.478;5.702;2023-04-01T08:51:16;21.45;;;14.43;;
43150;SDS011;28755;51.478;5.702;2023-04-01T09:03:14;24.35;;;16.67;;
43150;SDS011;28755;51.478;5.702;2023-04-01T09:11:35;27.65;;;15.10;;
43150;SDS011;28755;51.478;5.702;2023-04-01T09:19:35;26.27;;;14.98;;
43150;SDS011;28755;51.478;5.702;2023-04-01T09:22:49;21.58;;;14.05;;
43150;SDS011;28755;51.478;5.702;2023-04-01T09:25:34;22.33;;;13.43;;
43150;SDS011;28755;51.478;5.702;2023-04-01T09:28:34;23.48;;;13.32;;
43150;SDS011;28755;51.478;5.702;2023-04-01T09:34:09;19.17;;;12.88;;
43150;SDS011;28755;51.478;5.702;2023-04-01T09:37:09;17.80;;;12.00;;
43150;SDS011;28755;51.478;5.702;2023-04-01T09:40:01;19.38;;;12.77;;
43150;SDS011;28755;51.478;5.702;2023-04-01T09:45:20;18.98;;;13.32;;
43150;SDS011;28755;51.478;5.702;2023-04-01T09:48:01;21.00;;;11.82;;
43150;SDS011;28755;51.478;5.702;2023-04-01T09:56:01;11.93;;;9.80;;
43150;SDS011;28755;51.478;5.702;2023-04-01T10:02:04;22.25;;;9.50;;
43150;SDS011;28755;51.478;5.702;2023-04-01T10:05:04;14.80;;;9.00;;
43150;SDS011;28755;51.478;5.702;2023-04-01T10:10:43;10.80;;;8.20;;
43150;SDS011;28755;51.478;5.702;2023-04-01T10:13:39;9.75;;;8.20;;
43150;SDS011;28755;51.478;5.702;2023-04-01T10:19:25;12.93;;;7.85;;
43150;SDS011;28755;51.478;5.702;2023-04-01T10:22:16;7.90;;;7.10;;
43150;SDS011;28755;51.478;5.702;2023-04-01T10:37:13;10.45;;;8.90;;
43150;SDS011;28755;51.478;5.702;2023-04-01T10:39:29;11.95;;;8.70;;
43150;SDS011;28755;51.478;5.702;2023-04-01T10:51:35;12.52;;;10.73;;
43150;SDS011;28755;51.478;5.702;2023-04-01T10:54:13;12.57;;;10.52;;
43150;SDS011;28755;51.478;5.702;2023-04-01T10:57:02;14.13;;;10.98;;
43150;SDS011;28755;51.478;5.702;2023-04-01T11:00:05;13.40;;;11.52;;
43150;SDS011;28755;51.478;5.702;2023-04-01T11:11:41;14.85;;;12.18;;
43150;SDS011;28755;51.478;5.702;2023-04-01T11:14:34;15.80;;;13.15;;
43150;SDS011;28755;51.478;5.702;2023-04-01T11:20:13;17.15;;;13.32;;
43150;SDS011;28755;51.478;5.702;2023-04-01T11:23:38;16.52;;;13.73;;
43150;SDS011;28755;51.478;5.702;2023-04-01T11:34:16;18.55;;;13.98;;
43150;SDS011;28755;51.478;5.702;2023-04-01T11:37:17;18.70;;;14.93;;
43150;SDS011;28755;51.478;5.702;2023-04-01T11:39:59;16.80;;;13.30;;
43150;SDS011;28755;51.478;5.702;2023-04-01T11:42:52;19.05;;;14.68;;
43150;SDS011;28755;51.478;5.702;2023-04-01T11:45:39;17.95;;;13.80;;
43150;SDS011;28755;51.478;5.702;2023-04-01T11:48:32;21.23;;;14.07;;
43150;SDS011;28755;51.478;5.702;2023-04-01T11:51:04;19.13;;;13.43;;
43150;SDS011;28755;51.478;5.702;2023-04-01T11:59:29;16.88;;;13.20;;
43150;SDS011;28755;51.478;5.702;2023-04-01T12:02:16;18.45;;;13.75;;
43150;SDS011;28755;51.478;5.702;2023-04-01T12:08:02;16.40;;;12.57;;
43150;SDS011;28755;51.478;5.702;2023-04-01T12:10:40;15.98;;;11.85;;
43150;SDS011;28755;51.478;5.702;2023-04-01T12:13:24;15.93;;;12.75;;
43150;SDS011;28755;51.478;5.702;2023-04-01T12:18:59;13.52;;;10.80;;
43150;SDS011;28755;51.478;5.702;2023-04-01T12:29:30;12.48;;;9.32;;
43150;SDS011;28755;51.478;5.702;2023-04-01T12:32:23;10.85;;;9.45;;
43150;SDS011;28755;51.478;5.702;2023-04-01T12:49:19;10.48;;;7.88;;
43150;SDS011;28755;51.478;5.702;2023-04-01T12:52:31;8.23;;;6.90;;
43150;SDS011;28755;51.478;5.702;2023-04-01T12:55:14;7.30;;;6.45;;
43150;SDS011;28755;51.478;5.702;2023-04-01T13:00:52;7.70;;;6.82;;
43150;SDS011;28755;51.478;5.702;2023-04-01T13:03:46;8.13;;;7.32;;
43150;SDS011;28755;51.478;5.702;2023-04-01T13:06:29;8.38;;;7.10;;
43150;SDS011;28755;51.478;5.702;2023-04-01T13:17:58;14.60;;;8.00;;
43150;SDS011;28755;51.478;5.702;2023-04-01T13:23:37;12.48;;;8.60;;
43150;SDS011;28755;51.478;5.702;2023-04-01T13:29:15;10.75;;;9.30;;
43150;SDS011;28755;51.478;5.702;2023-04-01T13:32:05;15.68;;;9.85;;
43150;SDS011;28755;51.478;5.702;2023-04-01T13:34:53;12.98;;;9.35;;
43150;SDS011;28755;51.478;5.702;2023-04-01T13:43:14;10.68;;;9.52;;
43150;SDS011;28755;51.478;5.702;2023-04-01T13:48:57;11.85;;;9.50;;
43150;SDS011;28755;51.478;5.702;2023-04-01T13:56:57;13.77;;;9.60;;
43150;SDS011;28755;51.478;5.702;2023-04-01T14:02:40;14.48;;;9.60;;
43150;SDS011;28755;51.478;5.702;2023-04-01T14:10:49;12.25;;;8.52;;
43150;SDS011;28755;51.478;5.702;2023-04-01T14:13:50;11.18;;;8.80;;
43150;SDS011;28755;51.478;5.702;2023-04-01T14:19:51;10.43;;;8.70;;
43150;SDS011;28755;51.478;5.702;2023-04-01T14:22:25;11.68;;;9.90;;
43150;SDS011;28755;51.478;5.702;2023-04-01T14:25:23;14.18;;;9.65;;
43150;SDS011;28755;51.478;5.702;2023-04-01T14:28:16;11.65;;;9.40;;
43150;SDS011;28755;51.478;5.702;2023-04-01T14:47:43;11.82;;;9.88;;
43150;SDS011;28755;51.478;5.702;2023-04-01T14:50:16;12.30;;;10.27;;
43150;SDS011;28755;51.478;5.702;2023-04-01T14:55:33;13.35;;;9.63;;
43150;SDS011;28755;51.478;5.702;2023-04-01T14:58:16;11.90;;;10.32;;
43150;SDS011;28755;51.478;5.702;2023-04-01T15:06:40;12.40;;;9.75;;
43150;SDS011;28755;51.478;5.702;2023-04-01T15:12:12;10.25;;;8.85;;
43150;SDS011;28755;51.478;5.702;2023-04-01T15:15:00;10.25;;;8.82;;
43150;SDS011;28755;51.478;5.702;2023-04-01T15:17:48;9.60;;;8.57;;
43150;SDS011;28755;51.478;5.702;2023-04-01T15:22:59;10.63;;;8.93;;
43150;SDS011;28755;51.478;5.702;2023-04-01T15:29:08;10.93;;;9.77;;
43150;SDS011;28755;51.478;5.702;2023-04-01T15:34:34;11.48;;;9.20;;
43150;SDS011;28755;51.478;5.702;2023-04-01T15:40:02;10.88;;;9.38;;
43150;SDS011;28755;51.478;5.702;2023-04-01T15:42:52;13.68;;;10.13;;
43150;SDS011;28755;51.478;5.702;2023-04-01T15:59:53;13.70;;;10.48;;
43150;SDS011;28755;51.478;5.702;2023-04-01T16:05:00;13.20;;;11.18;;
43150;SDS011;28755;51.478;5.702;2023-04-01T16:07:51;14.68;;;11.70;;
43150;SDS011;28755;51.478;5.702;2023-04-01T16:17:05;15.65;;;12.23;;
43150;SDS011;28755;51.478;5.702;2023-04-01T16:19:49;14.68;;;12.18;;
43150;SDS011;28755;51.478;5.702;2023-04-01T16:25:19;12.98;;;11.38;;
43150;SDS011;28755;51.478;5.702;2023-04-01T16:27:49;18.27;;;11.85;;
43150;SDS011;28755;51.478;5.702;2023-04-01T16:30:38;16.70;;;12.30;;
43150;SDS011;28755;51.478;5.702;2023-04-01T16:39:05;18.08;;;12.50;;
43150;SDS011;28755;51.478;5.702;2023-04-01T16:42:09;16.75;;;11.85;;
43150;SDS011;28755;51.478;5.702;2023-04-01T16:56:37;15.60;;;11.68;;
43150;SDS011;28755;51.478;5.702;2023-04-01T17:02:13;14.73;;;11.88;;
43150;SDS011;28755;51.478;5.702;2023-04-01T17:21:35;13.65;;;10.27;;
43150;SDS011;28755;51.478;5.702;2023-04-01T17:24:31;12.00;;;10.13;;
43150;SDS011;28755;51.478;5.702;2023-04-01T17:27:46;15.60;;;11.52;;
43150;SDS011;28755;51.478;5.702;2023-04-01T17:38:57;12.77;;;11.13;;
43150;SDS011;28755;51.478;5.702;2023-04-01T17:41:41;13.55;;;11.18;;
43150;SDS011;28755;51.478;5.702;2023-04-01T17:44:26;14.95;;;12.23;;
43150;SDS011;28755;51.478;5.702;2023-04-01T17:47:00;12.73;;;11.05;;
43150;SDS011;28755;51.478;5.702;2023-04-01T17:52:32;14.98;;;13.02;;
43150;SDS011;28755;51.478;5.702;2023-04-01T17:58:03;16.83;;;12.55;;
43150;SDS011;28755;51.478;5.702;2023-04-01T18:09:32;14.77;;;10.77;;
43150;SDS011;28755;51.478;5.702;2023-04-01T18:12:26;13.02;;;11.10;;
43150;SDS011;28755;51.478;5.702;2023-04-01T18:15:27;13.95;;;11.57;;
43150;SDS011;28755;51.478;5.702;2023-04-01T18:18:09;17.05;;;10.75;;
43150;SDS011;28755;51.478;5.702;2023-04-01T18:20:54;15.15;;;10.95;;
43150;SDS011;28755;51.478;5.702;2023-04-01T18:26:23;13.00;;;9.70;;
43150;SDS011;28755;51.478;5.702;2023-04-01T18:29:13;12.07;;;9.95;;
43150;SDS011;28755;51.478;5.702;2023-04-01T18:32:00;13.02;;;9.95;;
43150;SDS011;28755;51.478;5.702;2023-04-01T18:37:25;10.10;;;8.02;;
43150;SDS011;28755;51.478;5.702;2023-04-01T18:42:55;8.52;;;6.43;;
43150;SDS011;28755;51.478;5.702;2023-04-01T18:45:32;5.90;;;5.30;;
43150;SDS011;28755;51.478;5.702;2023-04-01T18:48:08;7.38;;;5.28;;
43150;SDS011;28755;51.478;5.702;2023-04-01T18:50:55;6.57;;;5.88;;
43150;SDS011;28755;51.478;5.702;2023-04-01T18:56:03;6.10;;;5.35;;
43150;SDS011;28755;51.478;5.702;2023-04-01T18:58:35;6.95;;;5.95;;
43150;SDS011;28755;51.478;5.702;2023-04-01T19:12:11;8.82;;;7.78;;
43150;SDS011;28755;51.478;5.702;2023-04-01T19:17:54;9.30;;;8.20;;
43150;SDS011;28755;51.478;5.702;2023-04-01T19:20:43;8.63;;;7.50;;
43150;SDS011;28755;51.478;5.702;2023-04-01T19:26:18;10.90;;;8.20;;
43150;SDS011;28755;51.478;5.702;2023-04-01T19:37:32;11.00;;;8.82;;
43150;SDS011;28755;51.478;5.702;2023-04-01T19:40:13;10.48;;;9.38;;
43150;SDS011;28755;51.478;5.702;2023-04-01T19:43:01;11.98;;;10.60;;
43150;SDS011;28755;51.478;5.702;2023-04-01T19:53:59;14.27;;;10.48;;
43150;SDS011;28755;51.478;5.702;2023-04-01T20:02:01;12.55;;;11.25;;
43150;SDS011;28755;51.478;5.702;2023-04-01T20:04:42;12.55;;;11.23;;
43150;SDS011;28755;51.478;5.702;2023-04-01T20:07:22;13.52;;;11.93;;
43150;SDS011;28755;51.478;5.702;2023-04-01T20:10:02;13.25;;;11.85;;
43150;SDS011;28755;51.478;5.702;2023-04-01T20:17:46;14.45;;;12.10;;
43150;SDS011;28755;51.478;5.702;2023-04-01T20:23:01;14.13;;;12.30;;
43150;SDS011;28755;51.478;5.702;2023-04-01T20:25:43;13.68;;;12.20;;
43150;SDS011;28755;51.478;5.702;2023-04-01T20:33:43;12.55;;;11.10;;
43150;SDS011;28755;51.478;5.702;2023-04-01T20:36:33;12.07;;;10.73;;
43150;SDS011;28755;51.478;5.702;2023-04-01T20:41:56;11.38;;;10.18;;
43150;SDS011;28755;51.478;5.702;2023-04-01T20:45:08;11.52;;;10.32;;
43150;SDS011;28755;51.478;5.702;2023-04-01T20:47:52;11.18;;;9.98;;
43150;SDS011;28755;51.478;5.702;2023-04-01T20:50:57;11.18;;;9.98;;
43150;SDS011;28755;51.478;5.702;2023-04-01T20:53:29;11.60;;;10.40;;
43150;SDS011;28755;51.478;5.702;2023-04-01T21:01:47;15.98;;;12.07;;
43150;SDS011;28755;51.478;5.702;2023-04-01T21:09:35;14.60;;;12.98;;
43150;SDS011;28755;51.478;5.702;2023-04-01T21:14:59;13.75;;;12.35;;
43150;SDS011;28755;51.478;5.702;2023-04-01T21:20:49;12.30;;;11.02;;
43150;SDS011;28755;51.478;5.702;2023-04-01T21:23:58;12.63;;;10.73;;
43150;SDS011;28755;51.478;5.702;2023-04-01T21:26:52;11.23;;;10.10;;
43150;SDS011;28755;51.478;5.702;2023-04-01T21:29:53;11.43;;;10.23;;
43150;SDS011;28755;51.478;5.702;2023-04-01T21:32:36;12.20;;;10.45;;
43150;SDS011;28755;51.478;5.702;2023-04-01T21:41:05;12.40;;;10.98;;
43150;SDS011;28755;51.478;5.702;2023-04-01T22:00:30;10.98;;;9.88;;
43150;SDS011;28755;51.478;5.702;2023-04-01T22:08:24;12.68;;;10.15;;
43150;SDS011;28755;51.478;5.702;2023-04-01T22:11:06;12.95;;;11.55;;
43150;SDS011;28755;51.478;5.702;2023-04-01T22:13:47;12.73;;;10.90;;
43150;SDS011;28755;51.478;5.702;2023-04-01T22:16:20;12.57;;;11.27;;
43150;SDS011;28755;51.478;5.702;2023-04-01T22:21:45;14.18;;;12.70;;
43150;SDS011;28755;51.478;5.702;2023-04-01T22:27:19;13.15;;;11.75;;
43150;SDS011;28755;51.478;5.702;2023-04-01T22:30:00;13.63;;;11.75;;
43150;SDS011;28755;51.478;5.702;2023-04-01T22:32:30;13.27;;;11.88;;
43150;SDS011;28755;51.478;5.702;2023-04-01T22:37:52;14.63;;;13.02;;
43150;SDS011;28755;51.478;5.702;2023-04-01T22:40:30;13.77;;;12.27;;
43150;SDS011;28755;51.478;5.702;2023-04-01T22:43:10;15.70;;;12.77;;
43150;SDS011;28755;51.478;5.702;2023-04-01T22:48:18;14.68;;;11.93;;
43150;SDS011;28755;51.478;5.702;2023-04-01T22:56:05;16.92;;;11.98;;
43150;SDS011;28755;51.478;5.702;2023-04-01T22:58:38;14.55;;;13.02;;
43150;SDS011;28755;51.478;5.702;2023-04-01T23:01:12;16.88;;;13.20;;
43150;SDS011;28755;51.478;5.702;2023-04-01T23:03:50;13.85;;;11.60;;
43150;SDS011;28755;51.478;5.702;2023-04-01T23:06:19;12.85;;;11.45;;
43150;SDS011;28755;51.478;5.702;2023-04-01T23:08:54;12.80;;;11.50;;
43150;SDS011;28755;51.478;5.702;2023-04-01T23:20:07;12.30;;;11.00;;
43150;SDS011;28755;51.478;5.702;2023-04-01T23:23:02;15.93;;;10.57;;
43150;SDS011;28755;51.478;5.702;2023-04-01T23:25:43;10.68;;;9.57;;
43150;SDS011;28755;51.478;5.702;2023-04-01T23:35:46;9.02;;;8.13;;
43150;SDS011;28755;51.478;5.702;2023-04-01T23:38:30;9.23;;;8.32;;
43150;SDS011;28755;51.478;5.702;2023-04-01T23:40:59;9.32;;;8.27;;
43150;SDS011;28755;51.478;5.702;2023-04-01T23:43:26;8.13;;;7.32;;
43150;SDS011;28755;51.478;5.702;2023-04-01T23:45:57;8.05;;;7.25;;
43150;SDS011;28755;51.478;5.702;2023-04-01T23:48:30;7.68;;;6.93;;
43150;SDS011;28755;51.478;5.702;2023-04-01T23:51:02;8.45;;;7.65;;